Time;durP1;ratioP1;P1;durP2;ratioP2;P2;SDS_P1;SDS_P2;PMS_P1;PMS_P2;Temp;Humidity;BMP_temperature;BMP_pressure;BME280_temperature;BME280_humidity;BME280_pressure;Samples;Min_cycle;Max_cycle;Signal;HPM_P1;HPM_P2
2023/01/23 00:01:54;;;;;;;;;;;;;;;3.50;84.53;103543.00;5044241;28;19960;-48
2023/01/23 00:04:20;;;;;;;;;;;;;;;3.49;84.39;103541.19;5048575;28;19924;-49
2023/01/23 00:06:45;;;;;;;;;;;;;;;3.49;84.69;103533.56;5049097;28;19917;-43
2023/01/23 00:09:10;;;;;;;;;;;;;;;3.47;84.59;103532.53;5049309;28;19968;-50
2023/01/23 00:11:36;;;;;;;;;;;;;;;3.48;84.64;103541.94;5049289;28;19982;-46
2023/01/23 00:14:01;;;;;;;;;;;;;;;3.50;84.64;103540.44;5047910;28;19928;-45
2023/01/23 00:16:29;;;;;;;;;;;;;;;3.52;84.54;103538.97;5048506;28;19924;-50
2023/01/23 00:18:54;;;;;;;;;;;;;;;3.53;84.27;103538.22;5046960;28;19939;-44
2023/01/23 00:21:21;;;;;;;;;;;;;;;3.52;84.52;103535.50;5048135;28;20502;-46
2023/01/23 00:23:47;;;;;;;;;;;;;;;3.53;84.45;103537.31;5051265;28;20393;-50
2023/01/23 00:26:14;;;;;;;;;;;;;;;3.52;84.51;103541.53;5048513;28;19917;-46
2023/01/23 00:28:41;;;;;;;;;;;;;;;3.52;84.55;103544.06;5053858;28;20255;-49
2023/01/23 00:31:08;;;;;;;;;;;;;;;3.54;84.57;103549.28;5052048;28;19943;-48
2023/01/23 00:33:33;;;;;;;;;;;;;;;3.55;84.50;103559.63;5050407;28;20382;-50
2023/01/23 00:35:58;;;;;;;;;;;;;;;3.53;84.80;103558.56;5050687;28;19982;-46
2023/01/23 00:38:24;;;;;;;;;;;;;;;3.53;84.41;103557.69;5049151;28;19974;-46
2023/01/23 00:40:49;;;;;;;;;;;;;;;3.52;84.46;103559.31;5050036;28;19929;-47
2023/01/23 00:43:14;;;;;;;;;;;;;;;3.51;84.60;103557.50;5048454;28;20383;-48
2023/01/23 00:45:40;;;;;;;;;;;;;;;3.53;84.45;103556.03;5049143;28;19975;-50
2023/01/23 00:48:05;;;;;;;;;;;;;;;3.53;84.73;103556.03;5050305;28;19936;-46
2023/01/23 00:50:30;;;;;;;;;;;;;;;3.54;84.57;103557.81;5049806;28;19956;-49
2023/01/23 00:52:55;;;;;;;;;;;;;;;3.54;84.63;103562.00;5049673;28;20019;-50
2023/01/23 00:55:21;;;;;;;;;;;;;;;3.53;84.55;103544.97;5048521;28;20439;-50
2023/01/23 00:57:46;;;;;;;;;;;;;;;3.51;84.91;103547.31;5047811;28;20355;-49
2023/01/23 01:00:11;;;;;;;;;;;;;;;3.48;84.57;103545.38;5049916;28;19980;-46
2023/01/23 01:02:37;;;;;;;;;;;;;;;3.45;84.71;103545.06;5048539;28;19925;-44
2023/01/23 01:05:02;;;;;;;;;;;;;;;3.44;84.99;103550.91;5050421;28;19920;-49
2023/01/23 01:07:27;;;;;;;;;;;;;;;3.44;85.01;103547.47;5051874;28;19916;-45
2023/01/23 01:09:52;;;;;;;;;;;;;;;3.44;85.02;103557.63;5052252;28;19928;-46
2023/01/23 01:12:18;;;;;;;;;;;;;;;3.44;84.84;103562.72;5051358;28;19923;-45
2023/01/23 01:14:43;;;;;;;;;;;;;;;3.44;85.04;103556.00;5051862;28;19924;-47
2023/01/23 01:17:08;;;;;;;;;;;;;;;3.44;85.06;103550.00;5051043;28;19924;-45
2023/01/23 01:19:34;;;;;;;;;;;;;;;3.43;85.17;103560.94;5051654;28;20347;-45
2023/01/23 01:21:59;;;;;;;;;;;;;;;3.44;85.12;103563.63;5051422;28;19920;-45
2023/01/23 01:24:25;;;;;;;;;;;;;;;3.48;85.16;103552.13;5051046;28;19929;-44
2023/01/23 01:26:51;;;;;;;;;;;;;;;3.49;84.97;103561.53;5048641;28;19928;-44
2023/01/23 01:29:16;;;;;;;;;;;;;;;3.50;84.81;103558.25;5029627;28;19921;-46
2023/01/23 01:31:41;;;;;;;;;;;;;;;3.53;85.13;103565.31;5051849;28;19917;-47
2023/01/23 01:34:06;;;;;;;;;;;;;;;3.54;84.74;103567.09;5050167;28;20408;-49
2023/01/23 01:36:32;;;;;;;;;;;;;;;3.53;84.92;103576.38;5049063;28;19964;-49
2023/01/23 01:38:57;;;;;;;;;;;;;;;3.56;84.99;103570.69;5049334;28;19916;-47
2023/01/23 01:41:22;;;;;;;;;;;;;;;3.56;84.67;103576.66;5050377;28;19929;-48
2023/01/23 01:43:47;;;;;;;;;;;;;;;3.55;84.72;103577.44;5050838;28;19928;-46
2023/01/23 01:46:16;;;;;;;;;;;;;;;3.55;84.89;103572.34;5049350;28;20008;-44
2023/01/23 01:48:44;;;;;;;;;;;;;;;3.55;84.88;103579.97;5049062;28;19916;-45
2023/01/23 01:51:21;;;;;;;;;;;;;;;3.55;84.88;103574.88;5049094;28;19916;-45
2023/01/23 01:53:49;;;;;;;;;;;;;;;3.49;85.02;103570.06;5049916;28;19916;-48
2023/01/23 01:56:15;;;;;;;;;;;;;;;3.50;85.25;103566.78;5049109;28;19947;-45
2023/01/23 01:58:42;;;;;;;;;;;;;;;3.50;85.10;103564.25;5048531;28;19921;-46
2023/01/23 02:01:07;;;;;;;;;;;;;;;3.53;85.18;103561.13;5049713;28;20415;-50
2023/01/23 02:03:33;;;;;;;;;;;;;;;3.53;85.16;103566.22;5049110;28;19956;-48
2023/01/23 02:05:59;;;;;;;;;;;;;;;3.52;85.17;103563.47;5043454;28;19964;-46
2023/01/23 02:08:32;;;;;;;;;;;;;;;3.50;85.20;103574.41;5044734;28;19943;-47
2023/01/23 02:11:00;;;;;;;;;;;;;;;3.50;85.31;103568.44;5048731;28;19917;-47
2023/01/23 02:13:35;;;;;;;;;;;;;;;3.53;85.16;103570.41;5048131;28;19944;-45
2023/01/23 02:16:11;;;;;;;;;;;;;;;3.51;85.20;103575.31;5049002;28;20020;-44
2023/01/23 02:18:41;;;;;;;;;;;;;;;3.48;85.35;103567.38;5048236;28;19963;-45
2023/01/23 02:21:07;;;;;;;;;;;;;;;3.48;85.30;103567.38;5022598;28;19936;-44
2023/01/23 02:23:35;;;;;;;;;;;;;;;3.48;85.34;103567.38;5032227;28;19951;-49
2023/01/23 02:26:04;;;;;;;;;;;;;;;3.47;85.42;103570.69;5048586;28;19978;-47
2023/01/23 02:28:56;;;;;;;;;;;;;;;3.46;85.31;103572.34;5048256;28;20470;-47
2023/01/23 02:31:21;;;;;;;;;;;;;;;3.47;85.52;103573.22;5044190;28;20381;-46
2023/01/23 02:33:51;;;;;;;;;;;;;;;3.46;85.71;103574.88;5048946;28;19927;-44
2023/01/23 02:36:18;;;;;;;;;;;;;;;3.48;85.63;103577.56;5047852;28;19967;-46
2023/01/23 02:39:02;;;;;;;;;;;;;;;3.47;85.86;103575.78;5048716;28;20031;-49
2023/01/23 02:41:29;;;;;;;;;;;;;;;3.44;85.74;103576.34;5048304;28;19939;-48
2023/01/23 02:43:55;;;;;;;;;;;;;;;3.44;85.96;103566.16;5049168;28;19924;-50
2023/01/23 02:46:20;;;;;;;;;;;;;;;3.44;85.73;103567.81;5046498;28;20309;-47
2023/01/23 02:48:46;;;;;;;;;;;;;;;3.44;85.98;103568.72;5048489;28;19924;-42
2023/01/23 02:51:11;;;;;;;;;;;;;;;3.45;85.79;103570.50;5049113;28;19921;-48
2023/01/23 02:53:37;;;;;;;;;;;;;;;3.48;85.86;103573.38;5048340;28;20385;-49
2023/01/23 02:56:02;;;;;;;;;;;;;;;3.49;85.77;103575.16;5047864;28;19917;-46
2023/01/23 03:01:11;;;;;;;;;;;;;;;3.51;85.68;103577.84;5046892;28;20432;-44
2023/01/23 03:03:36;;;;;;;;;;;;;;;3.54;85.83;103577.28;5048529;28;19925;-49
2023/01/23 03:06:02;;;;;;;;;;;;;;;3.56;85.74;103575.78;5047787;28;19936;-45
2023/01/23 03:08:32;;;;;;;;;;;;;;;3.58;85.95;103576.81;5049123;28;19921;-49
2023/01/23 03:10:57;;;;;;;;;;;;;;;3.61;85.58;103583.13;5047650;28;19932;-43
2023/01/23 03:13:23;;;;;;;;;;;;;;;3.61;85.53;103575.50;5048827;28;19927;-48
2023/01/23 03:15:49;;;;;;;;;;;;;;;3.62;85.46;103574.72;5048699;28;19927;-45
2023/01/23 03:18:15;;;;;;;;;;;;;;;3.62;85.59;103574.72;5046444;28;20027;-45
2023/01/23 03:20:40;;;;;;;;;;;;;;;3.57;85.70;103578.47;5049008;28;20538;-46
2023/01/23 03:23:06;;;;;;;;;;;;;;;3.53;85.87;103583.13;5048428;28;19927;-46
2023/01/23 03:25:31;;;;;;;;;;;;;;;3.52;86.34;103582.22;5047762;28;19916;-45
2023/01/23 03:27:56;;;;;;;;;;;;;;;3.52;85.99;103583.84;5048032;28;20024;-45
2023/01/23 03:30:24;;;;;;;;;;;;;;;3.53;85.93;103584.00;5047921;28;19960;-47
2023/01/23 03:32:50;;;;;;;;;;;;;;;3.53;85.89;103584.00;5046077;28;20040;-43
2023/01/23 03:35:15;;;;;;;;;;;;;;;3.53;85.98;103578.94;5047242;28;19925;-44
2023/01/23 03:37:42;;;;;;;;;;;;;;;3.54;85.97;103584.91;5046290;28;19932;-45
2023/01/23 03:42:57;;;;;;;;;;;;;;;3.53;85.95;103583.13;5044255;28;19986;-43
2023/01/23 03:45:23;;;;;;;;;;;;;;;3.53;85.86;103578.94;5047394;28;20373;-45
2023/01/23 03:47:48;;;;;;;;;;;;;;;3.56;86.17;103569.03;5048212;28;19928;-46
2023/01/23 03:50:13;;;;;;;;;;;;;;;3.60;85.93;103580.44;5048279;28;19924;-45
2023/01/23 03:52:38;;;;;;;;;;;;;;;3.59;86.09;103583.72;5047050;28;19917;-45
2023/01/23 03:55:04;;;;;;;;;;;;;;;3.56;85.92;103586.84;5048781;28;20369;-45
2023/01/23 03:57:29;;;;;;;;;;;;;;;3.53;86.00;103580.56;5045347;28;19929;-46
2023/01/23 03:59:54;;;;;;;;;;;;;;;3.53;86.07;103571.28;5051365;28;20008;-48
2023/01/23 04:02:20;;;;;;;;;;;;;;;3.53;86.04;103572.94;5050016;28;20009;-49
2023/01/23 04:04:45;;;;;;;;;;;;;;;3.53;86.25;103572.94;5052310;28;19929;-49
2023/01/23 04:07:10;;;;;;;;;;;;;;;3.54;86.45;103584.91;5046431;28;19963;-48
2023/01/23 04:09:35;;;;;;;;;;;;;;;3.46;86.36;103573.97;5050974;28;19928;-45
2023/01/23 04:12:01;;;;;;;;;;;;;;;3.50;86.45;103581.16;5051053;28;20031;-46
2023/01/23 04:14:29;;;;;;;;;;;;;;;3.48;86.34;103587.75;5051604;28;20320;-43
2023/01/23 04:16:54;;;;;;;;;;;;;;;3.48;86.73;103587.75;5051764;28;20366;-46
2023/01/23 04:19:20;;;;;;;;;;;;;;;3.48;86.63;103591.19;5048880;28;19999;-45
2023/01/23 04:21:47;;;;;;;;;;;;;;;3.48;86.65;103585.19;5050628;28;19933;-47
2023/01/23 04:24:12;;;;;;;;;;;;;;;3.48;86.71;103581.00;5050802;28;19916;-43
2023/01/23 04:26:38;;;;;;;;;;;;;;;3.46;86.47;103586.69;5052142;28;20049;-45
2023/01/23 04:29:03;;;;;;;;;;;;;;;3.45;86.77;103595.03;5049293;28;19925;-45
2023/01/23 04:31:29;;;;;;;;;;;;;;;3.48;86.77;103598.81;5049877;28;19916;-47
2023/01/23 04:33:54;;;;;;;;;;;;;;;3.49;86.84;103592.97;5053191;28;20385;-48
2023/01/23 04:36:19;;;;;;;;;;;;;;;3.50;86.93;103594.75;5049212;28;20015;-46
2023/01/23 04:38:44;;;;;;;;;;;;;;;3.54;86.73;103590.91;5048929;28;19972;-46
2023/01/23 04:41:16;;;;;;;;;;;;;;;3.55;86.79;103587.59;5052618;28;19924;-46
2023/01/23 04:43:42;;;;;;;;;;;;;;;3.55;86.66;103589.25;5050261;28;19927;-47
2023/01/23 04:46:07;;;;;;;;;;;;;;;3.51;87.06;103588.03;5053324;28;19921;-46
2023/01/23 04:48:32;;;;;;;;;;;;;;;3.50;86.90;103604.94;5050771;28;19924;-46
2023/01/23 04:50:57;;;;;;;;;;;;;;;3.52;86.83;103591.47;5051395;28;19959;-47
2023/01/23 04:53:23;;;;;;;;;;;;;;;3.52;86.88;103594.94;5050050;28;19931;-44
2023/01/23 04:55:48;;;;;;;;;;;;;;;3.55;86.83;103595.22;5054337;28;19935;-45
2023/01/23 04:58:14;;;;;;;;;;;;;;;3.54;86.80;103597.63;5053507;28;19931;-48
2023/01/23 05:00:39;;;;;;;;;;;;;;;3.49;87.33;103605.69;5051339;28;20312;-46
2023/01/23 05:03:04;;;;;;;;;;;;;;;3.48;87.33;103600.47;5049589;28;19920;-45
2023/01/23 05:05:30;;;;;;;;;;;;;;;3.48;87.37;103603.00;5052387;28;20269;-45
2023/01/23 05:07:55;;;;;;;;;;;;;;;3.50;87.15;103606.59;5051559;28;19998;-49
2023/01/23 05:10:21;;;;;;;;;;;;;;;3.48;87.12;103603.91;5050288;28;19917;-48
2023/01/23 05:12:46;;;;;;;;;;;;;;;3.49;87.46;103610.78;5052953;28;19921;-46
2023/01/23 05:15:11;;;;;;;;;;;;;;;3.50;87.06;103607.47;5053503;28;19921;-47
2023/01/23 05:17:37;;;;;;;;;;;;;;;3.53;87.44;103616.19;5049297;28;20606;-49
2023/01/23 05:20:02;;;;;;;;;;;;;;;3.55;87.19;103615.59;5051416;28;20273;-43
2023/01/23 05:22:28;;;;;;;;;;;;;;;3.55;87.34;103615.59;5049859;28;19932;-46
2023/01/23 05:24:53;;;;;;;;;;;;;;;3.56;87.24;103617.38;5046904;28;19925;-45
2023/01/23 05:27:18;;;;;;;;;;;;;;;3.56;87.40;103616.47;5049118;28;19924;-47
2023/01/23 05:29:43;;;;;;;;;;;;;;;3.56;87.42;103616.47;5054090;28;20011;-46
2023/01/23 05:32:08;;;;;;;;;;;;;;;3.57;87.24;103624.25;5049025;28;19917;-46
2023/01/23 05:34:34;;;;;;;;;;;;;;;3.57;87.32;103621.72;5047461;28;19925;-45
2023/01/23 05:36:59;;;;;;;;;;;;;;;3.58;87.35;103622.63;5051246;28;20003;-48
2023/01/23 05:39:24;;;;;;;;;;;;;;;3.59;87.50;103632.97;5045839;28;20316;-48
2023/01/23 05:41:49;;;;;;;;;;;;;;;3.57;87.13;103629.34;5045109;28;19921;-46
2023/01/23 05:44:15;;;;;;;;;;;;;;;3.59;87.52;103629.53;5048270;28;19990;-50
2023/01/23 05:46:40;;;;;;;;;;;;;;;3.56;87.55;103630.09;5050172;28;20012;-47
2023/01/23 05:49:06;;;;;;;;;;;;;;;3.59;87.19;103627.88;5050722;28;20031;-48
2023/01/23 05:51:32;;;;;;;;;;;;;;;3.59;87.38;103632.97;5033120;28;19917;-46
2023/01/23 05:53:58;;;;;;;;;;;;;;;3.57;87.40;103629.34;5049014;28;20428;-48
2023/01/23 05:56:23;;;;;;;;;;;;;;;3.56;87.58;103625.00;5049600;28;20019;-46
2023/01/23 05:58:49;;;;;;;;;;;;;;;3.55;87.65;103625.75;5049695;28;19943;-47
2023/01/23 06:01:14;;;;;;;;;;;;;;;3.53;87.80;103622.19;5050490;28;20003;-46
2023/01/23 06:03:39;;;;;;;;;;;;;;;3.53;87.92;103621.28;5049106;28;19921;-48
2023/01/23 06:06:05;;;;;;;;;;;;;;;3.57;87.76;103628.44;5047950;28;19936;-47
2023/01/23 06:08:30;;;;;;;;;;;;;;;3.56;87.67;103624.13;5053036;28;19966;-48
2023/01/23 06:10:58;;;;;;;;;;;;;;;3.56;87.80;103625.00;5050279;28;19950;-48
2023/01/23 06:13:27;;;;;;;;;;;;;;;3.56;87.69;103629.19;5050226;28;19927;-46
2023/01/23 06:15:52;;;;;;;;;;;;;;;3.53;87.98;103632.34;5050427;28;20456;-46
2023/01/23 06:18:18;;;;;;;;;;;;;;;3.54;87.94;103640.88;5050070;28;19979;-48
2023/01/23 06:20:43;;;;;;;;;;;;;;;3.53;87.77;103642.53;5049573;28;19924;-47
2023/01/23 06:23:08;;;;;;;;;;;;;;;3.54;88.19;103646.88;5049571;28;20370;-46
2023/01/23 06:25:35;;;;;;;;;;;;;;;3.48;88.42;103643.69;5030141;28;19951;-47
2023/01/23 06:28:00;;;;;;;;;;;;;;;3.47;88.16;103647.00;5050628;28;20366;-47
2023/01/23 06:30:25;;;;;;;;;;;;;;;3.47;88.43;103657.19;5050342;28;19927;-47
2023/01/23 06:32:50;;;;;;;;;;;;;;;3.45;89.01;103653.56;5048663;28;20009;-49
2023/01/23 06:35:16;;;;;;;;;;;;;;;3.42;88.58;103646.53;5049735;28;20301;-46
2023/01/23 06:37:41;;;;;;;;;;;;;;;3.43;88.58;103650.88;5048308;28;20309;-46
2023/01/23 06:40:07;;;;;;;;;;;;;;;3.44;88.88;103649.22;5033241;28;19921;-46
2023/01/23 06:42:32;;;;;;;;;;;;;;;3.43;88.84;103650.88;5048408;28;19925;-45
2023/01/23 06:44:57;;;;;;;;;;;;;;;3.46;88.88;103650.28;5048453;28;19952;-49
2023/01/23 06:47:23;;;;;;;;;;;;;;;3.44;89.04;103656.84;5049007;28;20014;-49
2023/01/23 06:49:48;;;;;;;;;;;;;;;3.41;89.03;103660.00;5048772;28;19921;-47
2023/01/23 06:52:13;;;;;;;;;;;;;;;3.41;89.09;103651.47;5044450;28;19990;-44
2023/01/23 06:54:38;;;;;;;;;;;;;;;3.41;88.85;103657.44;5047581;28;19920;-42
2023/01/23 06:57:04;;;;;;;;;;;;;;;3.44;89.22;103667.03;5046126;28;19933;-48
2023/01/23 06:59:29;;;;;;;;;;;;;;;3.46;88.87;103665.56;5044798;28;20019;-48
2023/01/23 07:01:54;;;;;;;;;;;;;;;3.48;89.01;103664.06;5046351;28;19924;-43
2023/01/23 07:04:20;;;;;;;;;;;;;;;3.48;89.06;103670.03;5048865;28;20399;-46
2023/01/23 07:06:45;;;;;;;;;;;;;;;3.48;88.84;103664.06;5046922;28;20401;-48
2023/01/23 07:09:10;;;;;;;;;;;;;;;3.49;88.91;103676.94;5048107;28;19921;-47
2023/01/23 07:11:36;;;;;;;;;;;;;;;3.52;88.87;103671.25;5048282;28;19924;-46
2023/01/23 07:14:01;;;;;;;;;;;;;;;3.50;88.87;103678.72;5044888;28;19931;-48
2023/01/23 07:16:26;;;;;;;;;;;;;;;3.52;88.94;103667.78;5043990;28;19928;-49
2023/01/23 07:18:52;;;;;;;;;;;;;;;3.53;89.33;103669.63;5047579;28;19921;-49
2023/01/23 07:21:18;;;;;;;;;;;;;;;3.49;88.90;103671.84;5047419;28;19933;-48
2023/01/23 07:23:43;;;;;;;;;;;;;;;3.51;88.95;103679.63;5047350;28;19917;-49
2023/01/23 07:26:08;;;;;;;;;;;;;;;3.53;89.00;103683.22;5049136;28;19917;-45
2023/01/23 07:28:37;;;;;;;;;;;;;;;3.55;88.95;103683.38;5047123;28;19956;-45
2023/01/23 07:31:03;;;;;;;;;;;;;;;3.56;89.08;103685.19;5048103;28;19921;-45
2023/01/23 07:33:28;;;;;;;;;;;;;;;3.59;88.89;103694.03;5046860;28;20309;-47
2023/01/23 07:35:53;;;;;;;;;;;;;;;3.62;88.83;103694.31;5046816;28;19925;-46
2023/01/23 07:38:19;;;;;;;;;;;;;;;3.66;88.71;103699.00;5047801;28;19921;-47
2023/01/23 07:40:44;;;;;;;;;;;;;;;3.68;88.74;103696.59;5047986;28;19917;-42
2023/01/23 07:43:10;;;;;;;;;;;;;;;3.69;88.68;103701.81;5046197;28;19920;-47
2023/01/23 07:45:36;;;;;;;;;;;;;;;3.72;88.68;103706.34;5026724;28;19927;-47
2023/01/23 07:48:02;;;;;;;;;;;;;;;3.71;88.53;103717.28;5027747;28;20012;-49
2023/01/23 07:50:27;;;;;;;;;;;;;;;3.71;88.69;103715.63;5031695;28;20004;-48
2023/01/23 07:52:52;;;;;;;;;;;;;;;3.73;88.57;103718.31;5048006;28;19928;-47
2023/01/23 07:55:18;;;;;;;;;;;;;;;3.72;88.47;103717.41;5046392;28;20340;-47
2023/01/23 07:57:43;;;;;;;;;;;;;;;3.73;88.50;103718.31;5047354;28;20058;-43
2023/01/23 08:00:09;;;;;;;;;;;;;;;3.75;88.55;103722.81;5048018;28;19932;-46
2023/01/23 08:02:35;;;;;;;;;;;;;;;3.76;88.53;103721.16;5046746;28;20003;-44
2023/01/23 08:05:00;;;;;;;;;;;;;;;3.76;88.25;103721.16;5042491;28;20003;-47
2023/01/23 08:07:25;;;;;;;;;;;;;;;3.76;88.53;103721.16;5046827;28;20325;-48
2023/01/23 08:09:51;;;;;;;;;;;;;;;3.72;88.50;103722.50;5045713;28;19963;-48
2023/01/23 08:12:16;;;;;;;;;;;;;;;3.71;88.60;103714.72;5047331;28;19929;-49
2023/01/23 08:14:41;;;;;;;;;;;;;;;3.67;89.15;103710.97;5045752;28;19929;-44
2023/01/23 08:17:07;;;;;;;;;;;;;;;3.66;88.94;103721.91;5044571;28;19925;-44
2023/01/23 08:19:32;;;;;;;;;;;;;;;3.68;89.04;103730.56;5044804;28;20262;-51
2023/01/23 08:21:57;;;;;;;;;;;;;;;3.68;88.92;103722.94;5046816;28;19921;-48
2023/01/23 08:24:22;;;;;;;;;;;;;;;3.70;88.97;103723.09;5044577;28;19928;-46
2023/01/23 08:26:48;;;;;;;;;;;;;;;3.70;88.88;103725.63;5044891;28;19960;-47
2023/01/23 08:29:13;;;;;;;;;;;;;;;3.69;89.36;103728.94;5044764;28;19975;-45
2023/01/23 08:31:38;;;;;;;;;;;;;;;3.69;88.89;103734.00;5046725;28;19952;-45
2023/01/23 08:34:04;;;;;;;;;;;;;;;3.70;89.27;103734.19;5045223;28;19932;-53
2023/01/23 08:36:29;;;;;;;;;;;;;;;3.69;89.44;103737.47;5046272;28;20399;-44
2023/01/23 08:38:54;;;;;;;;;;;;;;;3.69;89.45;103732.38;5044919;28;19927;-45
2023/01/23 08:41:20;;;;;;;;;;;;;;;3.68;89.31;103735.66;5048126;28;19921;-47
2023/01/23 08:43:45;;;;;;;;;;;;;;;3.68;89.44;103738.22;5049754;28;19920;-46
2023/01/23 08:46:10;;;;;;;;;;;;;;;3.70;89.34;103748.53;5015239;28;19950;-45
2023/01/23 08:48:36;;;;;;;;;;;;;;;3.70;89.66;103743.44;5051157;28;19921;-45
2023/01/23 08:51:03;;;;;;;;;;;;;;;3.68;89.79;103739.84;5049953;28;19916;-47
2023/01/23 08:53:29;;;;;;;;;;;;;;;3.64;89.82;103742.81;5052070;28;20383;-45
2023/01/23 08:55:57;;;;;;;;;;;;;;;3.63;89.97;103748.66;5048974;28;19982;-46
2023/01/23 08:58:23;;;;;;;;;;;;;;;3.62;90.45;103750.31;5049699;28;19979;-48
2023/01/23 09:00:48;;;;;;;;;;;;;;;3.62;90.47;103747.75;5042284;28;19944;-43
2023/01/23 09:03:13;;;;;;;;;;;;;;;3.62;90.39;103751.94;5038185;28;19973;-44
2023/01/23 09:05:38;;;;;;;;;;;;;;;3.66;89.97;103746.44;5045606;28;19925;-42
2023/01/23 09:08:04;;;;;;;;;;;;;;;3.67;90.22;103760.97;5046972;28;19928;-49
2023/01/23 09:10:29;;;;;;;;;;;;;;;3.63;90.24;103757.19;5047872;28;19921;-43
2023/01/23 09:12:54;;;;;;;;;;;;;;;3.60;90.50;103761.97;5048454;28;19962;-45
2023/01/23 09:15:21;;;;;;;;;;;;;;;3.62;90.68;103760.47;5047751;28;20483;-48
2023/01/23 09:17:46;;;;;;;;;;;;;;;3.64;90.62;103750.44;5048135;28;20300;-47
2023/01/23 09:20:12;;;;;;;;;;;;;;;3.65;90.83;103747.19;5047109;28;20005;-50
2023/01/23 09:22:37;;;;;;;;;;;;;;;3.66;90.42;103749.88;5048122;28;20396;-46
2023/01/23 09:25:03;;;;;;;;;;;;;;;3.72;90.39;103745.41;5043964;28;20381;-45
2023/01/23 09:27:28;;;;;;;;;;;;;;;3.79;90.26;103738.41;5049042;28;19948;-46
2023/01/23 09:29:53;;;;;;;;;;;;;;;3.83;90.26;103745.63;5049071;28;19931;-43
2023/01/23 09:32:18;;;;;;;;;;;;;;;3.76;90.35;103746.59;5047670;28;19931;-48
2023/01/23 09:34:44;;;;;;;;;;;;;;;3.72;90.65;103747.06;5048540;28;19967;-48
2023/01/23 09:37:09;;;;;;;;;;;;;;;3.66;90.85;103749.88;5045784;28;19951;-47
2023/01/23 09:39:34;;;;;;;;;;;;;;;3.68;90.74;103753.47;5046952;28;20031;-45
2023/01/23 09:42:06;;;;;;;;;;;;;;;3.72;90.64;103758.16;5046193;28;19962;-45
2023/01/23 09:44:36;;;;;;;;;;;;;;;3.78;90.53;103762.06;5044838;28;20851;-48
2023/01/23 09:47:05;;;;;;;;;;;;;;;3.84;90.21;103766.13;5047749;28;19924;-45
2023/01/23 09:49:37;;;;;;;;;;;;;;;3.87;90.25;103768.06;5046641;28;19931;-45
2023/01/23 09:52:05;;;;;;;;;;;;;;;3.88;90.19;103775.84;5047533;28;19917;-45
2023/01/23 09:54:52;;;;;;;;;;;;;;;3.86;90.08;103773.91;5047968;28;19960;-47
2023/01/23 09:57:19;;;;;;;;;;;;;;;3.86;90.51;103781.53;5038337;28;19925;-45
2023/01/23 09:59:53;;;;;;;;;;;;;;;3.83;90.02;103786.34;5045652;28;22027;-45
2023/01/23 10:02:20;;;;;;;;;;;;;;;3.83;90.13;103776.16;5041071;28;19921;-49
2023/01/23 10:04:46;;;;;;;;;;;;;;;3.86;90.34;103784.09;5049074;28;19928;-46
2023/01/23 10:07:12;;;;;;;;;;;;;;;3.90;90.40;103773.50;5048579;28;19925;-45
2023/01/23 10:09:40;;;;;;;;;;;;;;;3.92;89.80;103777.06;5045237;28;19923;-45
2023/01/23 10:12:10;;;;;;;;;;;;;;;3.93;90.02;103778.88;5041021;28;19963;-48
2023/01/23 10:14:45;;;;;;;;;;;;;;;3.93;89.58;103769.59;5045471;28;19917;-46
2023/01/23 10:17:13;;;;;;;;;;;;;;;3.94;89.59;103765.38;5046871;28;19928;-46
2023/01/23 10:19:38;;;;;;;;;;;;;;;3.98;89.89;103776.06;5046146;28;20070;-47
2023/01/23 10:22:14;;;;;;;;;;;;;;;4.01;89.87;103773.81;5048055;28;19958;-42
2023/01/23 10:24:49;;;;;;;;;;;;;;;4.03;89.59;103779.97;5045445;28;20228;-47
2023/01/23 10:27:18;;;;;;;;;;;;;;;4.05;89.42;103777.56;5048467;28;19917;-47
2023/01/23 10:29:47;;;;;;;;;;;;;;;4.00;89.11;103772.03;5046810;28;19946;-44
2023/01/23 10:32:24;;;;;;;;;;;;;;;3.98;89.23;103773.50;5045244;28;19947;-42
2023/01/23 10:34:55;;;;;;;;;;;;;;;3.97;89.36;103771.72;5043700;28;19925;-44
2023/01/23 10:37:36;;;;;;;;;;;;;;;4.00;89.42;103768.56;5047205;28;19928;-47
2023/01/23 10:40:06;;;;;;;;;;;;;;;4.02;89.19;103772.19;5045848;28;20732;-43
2023/01/23 10:42:32;;;;;;;;;;;;;;;4.04;88.75;103775.78;5048831;28;19977;-46
2023/01/23 10:44:57;;;;;;;;;;;;;;;4.02;88.95;103767.97;5045819;28;19916;-47
2023/01/23 10:47:28;;;;;;;;;;;;;;;4.06;89.11;103766.63;5042131;28;20377;-45
2023/01/23 10:49:54;;;;;;;;;;;;;;;4.03;88.79;103766.34;5042635;28;20632;-43
2023/01/23 10:52:36;;;;;;;;;;;;;;;3.97;88.90;103765.72;5047692;28;20067;-46
2023/01/23 10:55:02;;;;;;;;;;;;;;;3.93;89.43;103767.03;5046105;28;19921;-47
2023/01/23 10:57:29;;;;;;;;;;;;;;;3.94;89.14;103766.31;5046215;28;19921;-46
2023/01/23 11:00:00;;;;;;;;;;;;;;;3.95;89.25;103764.69;5043153;28;20077;-45
2023/01/23 11:02:27;;;;;;;;;;;;;;;4.00;89.32;103768.56;5042899;28;20377;-46
2023/01/23 11:04:52;;;;;;;;;;;;;;;4.04;89.02;103758.84;5045111;28;19956;-46
2023/01/23 11:07:21;;;;;;;;;;;;;;;4.05;88.73;103757.19;5045484;28;19975;-45
2023/01/23 11:09:52;;;;;;;;;;;;;;;4.05;88.93;103762.28;5044876;28;20357;-45
2023/01/23 11:12:22;;;;;;;;;;;;;;;4.10;89.16;103761.09;5041147;28;20491;-43
2023/01/23 11:14:47;;;;;;;;;;;;;;;4.17;89.16;103760.97;5045534;28;19948;-48
2023/01/23 11:17:14;;;;;;;;;;;;;;;4.22;88.94;103762.34;5046520;28;19968;-46
2023/01/23 11:19:40;;;;;;;;;;;;;;;4.26;88.85;103759.34;5043906;28;19943;-44
2023/01/23 11:22:21;;;;;;;;;;;;;;;4.27;88.26;103767.91;5045056;28;19924;-46
2023/01/23 11:24:47;;;;;;;;;;;;;;;4.26;88.49;103774.63;5047099;28;20549;-46
2023/01/23 11:27:19;;;;;;;;;;;;;;;4.25;88.16;103764.31;5046396;28;19924;-43
2023/01/23 11:29:47;;;;;;;;;;;;;;;4.24;88.40;103758.28;5045819;28;19916;-47
2023/01/23 11:32:12;;;;;;;;;;;;;;;4.25;88.62;103756.66;5044475;28;20515;-43
2023/01/23 11:34:49;;;;;;;;;;;;;;;4.30;88.57;103753.78;5045534;28;19975;-48
2023/01/23 11:37:17;;;;;;;;;;;;;;;4.35;88.71;103755.91;5046031;28;19927;-45
2023/01/23 11:39:45;;;;;;;;;;;;;;;4.39;88.58;103758.91;5044868;28;19917;-48
2023/01/23 11:42:11;;;;;;;;;;;;;;;4.45;88.37;103764.63;5046789;28;20361;-46
2023/01/23 11:44:37;;;;;;;;;;;;;;;4.49;87.85;103760.72;5047655;28;19920;-45
2023/01/23 11:47:14;;;;;;;;;;;;;;;4.45;87.52;103767.19;5037589;28;19923;-46
2023/01/23 11:50:09;;;;;;;;;;;;;;;4.39;86.94;103773.31;5041422;28;19917;-48
2023/01/23 11:52:37;;;;;;;;;;;;;;;4.36;87.72;103775.53;5044789;28;20349;-46
2023/01/23 11:55:02;;;;;;;;;;;;;;;4.39;88.35;103775.84;5045391;28;19921;-50
2023/01/23 11:57:34;;;;;;;;;;;;;;;4.42;87.97;103774.50;5045343;28;19940;-46
2023/01/23 11:59:59;;;;;;;;;;;;;;;4.47;87.73;103775.84;5046265;28;19917;-47
2023/01/23 12:02:39;;;;;;;;;;;;;;;4.48;87.27;103771.66;5045553;28;19924;-46
2023/01/23 12:05:32;;;;;;;;;;;;;;;4.44;86.83;103772.13;5046375;28;19921;-47
2023/01/23 12:08:20;;;;;;;;;;;;;;;4.41;86.94;103767.59;5041732;28;19920;-43
2023/01/23 12:10:45;;;;;;;;;;;;;;;4.38;87.01;103767.31;5038641;28;19925;-49
2023/01/23 12:13:22;;;;;;;;;;;;;;;4.37;87.03;103770.63;5043613;28;20026;-49
2023/01/23 12:16:00;;;;;;;;;;;;;;;4.38;87.45;103761.31;5045009;28;19931;-46
2023/01/23 12:18:40;;;;;;;;;;;;;;;4.40;87.41;103765.81;5044246;28;19921;-50
2023/01/23 12:21:17;;;;;;;;;;;;;;;4.41;87.42;103764.16;5048637;28;19928;-46
2023/01/23 12:23:53;;;;;;;;;;;;;;;4.42;86.71;103765.97;5047383;28;20312;-49
2023/01/23 12:26:21;;;;;;;;;;;;;;;4.40;86.48;103758.16;5048563;28;19927;-46
2023/01/23 12:28:52;;;;;;;;;;;;;;;4.38;86.46;103756.22;5047726;28;19924;-48
2023/01/23 12:31:39;;;;;;;;;;;;;;;4.38;86.57;103758.78;5049785;28;19921;-43
2023/01/23 12:34:08;;;;;;;;;;;;;;;4.39;86.48;103758.03;5031684;28;20305;-46
2023/01/23 12:36:33;;;;;;;;;;;;;;;4.40;86.39;103754.72;5050390;28;19940;-47
2023/01/23 12:39:17;;;;;;;;;;;;;;;4.42;86.52;103749.03;5050439;28;20365;-46
2023/01/23 12:41:46;;;;;;;;;;;;;;;4.47;86.77;103754.56;5051834;28;19963;-49
2023/01/23 12:44:29;;;;;;;;;;;;;;;4.49;86.12;103759.09;5052337;28;19912;-43
2023/01/23 12:46:54;;;;;;;;;;;;;;;4.48;86.22;103757.25;5048951;28;20027;-49
2023/01/23 12:49:29;;;;;;;;;;;;;;;4.46;86.26;103757.88;5048687;28;20015;-47
2023/01/23 12:51:59;;;;;;;;;;;;;;;4.45;86.43;103762.06;5049373;28;20003;-44
2023/01/23 12:54:31;;;;;;;;;;;;;;;4.46;86.64;103755.34;5048848;28;19932;-50